sensor_id;sensor_type;location;lat;lon;timestamp;temperature;humidity
66920;DHT22;53831;52.090;17.026;2022-12-29T00:00:37;7.00;99.90
66920;DHT22;53831;52.090;17.026;2022-12-29T00:01:38;7.00;99.90
66920;DHT22;53831;52.090;17.026;2022-12-29T00:02:38;7.00;99.90
66920;DHT22;53831;52.090;17.026;2022-12-29T00:03:39;7.00;99.90
66920;DHT22;53831;52.090;17.026;2022-12-29T00:04:40;7.00;99.90
66920;DHT22;53831;52.090;17.026;2022-12-29T00:05:40;7.00;99.90
66920;DHT22;53831;52.090;17.026;2022-12-29T00:06:42;7.00;99.90
66920;DHT22;53831;52.090;17.026;2022-12-29T00:07:43;7.00;99.90
66920;DHT22;53831;52.090;17.026;2022-12-29T00:08:43;7.00;99.90
66920;DHT22;53831;52.090;17.026;2022-12-29T00:09:44;7.00;99.90
66920;DHT22;53831;52.090;17.026;2022-12-29T00:10:44;7.10;99.90
66920;DHT22;53831;52.090;17.026;2022-12-29T00:11:45;7.10;99.90
66920;DHT22;53831;52.090;17.026;2022-12-29T00:12:46;7.00;99.90
66920;DHT22;53831;52.090;17.026;2022-12-29T00:14:06;7.00;99.90
66920;DHT22;53831;52.090;17.026;2022-12-29T00:15:25;7.00;99.90
66920;DHT22;53831;52.090;17.026;2022-12-29T00:16:41;7.00;99.90
66920;DHT22;53831;52.090;17.026;2022-12-29T00:17:43;7.00;99.90
66920;DHT22;53831;52.090;17.026;2022-12-29T00:18:43;7.00;99.90
66920;DHT22;53831;52.090;17.026;2022-12-29T00:19:44;7.00;99.90
66920;DHT22;53831;52.090;17.026;2022-12-29T00:21:03;7.00;99.90
66920;DHT22;53831;52.090;17.026;2022-12-29T00:22:23;7.00;99.90
66920;DHT22;53831;52.090;17.026;2022-12-29T00:23:43;7.00;99.90
66920;DHT22;53831;52.090;17.026;2022-12-29T00:25:03;7.00;99.90
66920;DHT22;53831;52.090;17.026;2022-12-29T00:26:22;6.90;99.90
66920;DHT22;53831;52.090;17.026;2022-12-29T00:27:42;6.90;99.90
66920;DHT22;53831;52.090;17.026;2022-12-29T00:29:01;6.90;99.90
66920;DHT22;53831;52.090;17.026;2022-12-29T00:30:37;6.90;99.90
66920;DHT22;53831;52.090;17.026;2022-12-29T00:31:56;6.80;99.90
66920;DHT22;53831;52.090;17.026;2022-12-29T00:33:19;6.80;99.90
66920;DHT22;53831;52.090;17.026;2022-12-29T00:34:38;6.80;99.90
66920;DHT22;53831;52.090;17.026;2022-12-29T00:37:00;6.80;99.90
66920;DHT22;53831;52.090;17.026;2022-12-29T00:38:04;6.80;99.90
66920;DHT22;53831;52.090;17.026;2022-12-29T00:39:23;6.80;99.90
66920;DHT22;53831;52.090;17.026;2022-12-29T00:40:42;6.70;99.90
66920;DHT22;53831;52.090;17.026;2022-12-29T00:42:07;6.70;99.90
66920;DHT22;53831;52.090;17.026;2022-12-29T00:43:27;6.70;99.90
66920;DHT22;53831;52.090;17.026;2022-12-29T00:44:46;6.70;99.90
66920;DHT22;53831;52.090;17.026;2022-12-29T00:45:48;6.70;99.90
66920;DHT22;53831;52.090;17.026;2022-12-29T00:46:48;6.70;99.90
66920;DHT22;53831;52.090;17.026;2022-12-29T00:47:49;6.70;99.90
66920;DHT22;53831;52.090;17.026;2022-12-29T00:48:50;6.70;99.90
66920;DHT22;53831;52.090;17.026;2022-12-29T00:50:08;6.70;99.90
66920;DHT22;53831;52.090;17.026;2022-12-29T00:51:09;6.70;99.90
66920;DHT22;53831;52.090;17.026;2022-12-29T00:52:12;6.70;99.90
66920;DHT22;53831;52.090;17.026;2022-12-29T00:53:12;6.70;99.90
66920;DHT22;53831;52.090;17.026;2022-12-29T00:54:14;6.70;99.90
66920;DHT22;53831;52.090;17.026;2022-12-29T00:55:15;6.70;99.90
66920;DHT22;53831;52.090;17.026;2022-12-29T00:56:15;6.70;99.90
66920;DHT22;53831;52.090;17.026;2022-12-29T00:57:16;6.70;99.90
66920;DHT22;53831;52.090;17.026;2022-12-29T00:58:17;6.70;99.90
66920;DHT22;53831;52.090;17.026;2022-12-29T00:59:18;6.70;99.90
66920;DHT22;53831;52.090;17.026;2022-12-29T01:00:19;6.70;99.90
66920;DHT22;53831;52.090;17.026;2022-12-29T01:01:20;6.70;99.90
66920;DHT22;53831;52.090;17.026;2022-12-29T01:02:20;6.80;99.90
66920;DHT22;53831;52.090;17.026;2022-12-29T01:03:21;6.70;99.90
66920;DHT22;53831;52.090;17.026;2022-12-29T01:04:23;6.70;99.90
66920;DHT22;53831;52.090;17.026;2022-12-29T01:05:24;6.70;99.90
66920;DHT22;53831;52.090;17.026;2022-12-29T01:06:25;6.80;99.90
66920;DHT22;53831;52.090;17.026;2022-12-29T01:07:25;6.80;99.90
66920;DHT22;53831;52.090;17.026;2022-12-29T01:08:28;6.80;99.90
66920;DHT22;53831;52.090;17.026;2022-12-29T01:09:28;6.90;99.90
66920;DHT22;53831;52.090;17.026;2022-12-29T01:10:58;6.90;99.90
66920;DHT22;53831;52.090;17.026;2022-12-29T01:11:58;6.90;99.90
66920;DHT22;53831;52.090;17.026;2022-12-29T01:12:59;6.90;99.90
66920;DHT22;53831;52.090;17.026;2022-12-29T01:14:00;6.90;99.90
66920;DHT22;53831;52.090;17.026;2022-12-29T01:15:00;6.90;99.90
66920;DHT22;53831;52.090;17.026;2022-12-29T01:16:01;6.90;99.90
66920;DHT22;53831;52.090;17.026;2022-12-29T01:17:02;6.90;99.90
66920;DHT22;53831;52.090;17.026;2022-12-29T01:18:03;6.90;99.90
66920;DHT22;53831;52.090;17.026;2022-12-29T01:19:04;6.90;99.90
66920;DHT22;53831;52.090;17.026;2022-12-29T01:20:05;6.90;99.90
66920;DHT22;53831;52.090;17.026;2022-12-29T01:21:06;7.00;99.90
66920;DHT22;53831;52.090;17.026;2022-12-29T01:22:07;7.00;99.90
66920;DHT22;53831;52.090;17.026;2022-12-29T01:23:07;7.00;99.90
66920;DHT22;53831;52.090;17.026;2022-12-29T01:24:08;7.00;99.90
66920;DHT22;53831;52.090;17.026;2022-12-29T01:25:09;7.00;99.90
66920;DHT22;53831;52.090;17.026;2022-12-29T01:26:14;7.00;99.90
66920;DHT22;53831;52.090;17.026;2022-12-29T01:27:14;7.00;99.90
66920;DHT22;53831;52.090;17.026;2022-12-29T01:28:15;7.00;99.90
66920;DHT22;53831;52.090;17.026;2022-12-29T01:29:16;7.00;99.90
66920;DHT22;53831;52.090;17.026;2022-12-29T01:30:19;7.10;99.90
66920;DHT22;53831;52.090;17.026;2022-12-29T01:31:20;7.10;99.90
66920;DHT22;53831;52.090;17.026;2022-12-29T01:32:20;7.10;99.90
66920;DHT22;53831;52.090;17.026;2022-12-29T01:33:21;7.10;99.90
66920;DHT22;53831;52.090;17.026;2022-12-29T01:34:22;7.00;99.90
66920;DHT22;53831;52.090;17.026;2022-12-29T01:35:22;7.00;99.90
66920;DHT22;53831;52.090;17.026;2022-12-29T01:36:24;7.00;99.90
66920;DHT22;53831;52.090;17.026;2022-12-29T01:37:24;7.00;99.90
66920;DHT22;53831;52.090;17.026;2022-12-29T01:38:26;6.90;99.90
66920;DHT22;53831;52.090;17.026;2022-12-29T01:39:26;6.90;99.90
66920;DHT22;53831;52.090;17.026;2022-12-29T01:40:27;6.90;99.90
66920;DHT22;53831;52.090;17.026;2022-12-29T01:41:28;6.90;99.90
66920;DHT22;53831;52.090;17.026;2022-12-29T01:42:29;7.00;99.90
66920;DHT22;53831;52.090;17.026;2022-12-29T01:43:41;7.00;99.90
66920;DHT22;53831;52.090;17.026;2022-12-29T01:44:58;7.00;99.90
66920;DHT22;53831;52.090;17.026;2022-12-29T01:46:00;7.00;99.90
66920;DHT22;53831;52.090;17.026;2022-12-29T01:47:01;7.00;99.90
66920;DHT22;53831;52.090;17.026;2022-12-29T01:48:03;7.00;99.90
66920;DHT22;53831;52.090;17.026;2022-12-29T01:51:11;7.00;99.90
66920;DHT22;53831;52.090;17.026;2022-12-29T01:52:11;7.00;99.90
66920;DHT22;53831;52.090;17.026;2022-12-29T01:53:16;7.00;99.90
66920;DHT22;53831;52.090;17.026;2022-12-29T01:54:31;7.00;99.90
66920;DHT22;53831;52.090;17.026;2022-12-29T01:55:44;7.00;99.90
66920;DHT22;53831;52.090;17.026;2022-12-29T01:56:46;7.00;99.90
66920;DHT22;53831;52.090;17.026;2022-12-29T01:57:50;7.00;99.90
66920;DHT22;53831;52.090;17.026;2022-12-29T01:59:05;7.00;99.90
66920;DHT22;53831;52.090;17.026;2022-12-29T02:00:10;7.00;99.90
66920;DHT22;53831;52.090;17.026;2022-12-29T02:01:16;7.00;99.90
66920;DHT22;53831;52.090;17.026;2022-12-29T02:02:19;7.00;99.90
66920;DHT22;53831;52.090;17.026;2022-12-29T02:03:21;7.00;99.90
66920;DHT22;53831;52.090;17.026;2022-12-29T02:04:25;7.00;99.90
66920;DHT22;53831;52.090;17.026;2022-12-29T02:05:44;7.00;99.90
66920;DHT22;53831;52.090;17.026;2022-12-29T02:07:01;7.00;99.90
66920;DHT22;53831;52.090;17.026;2022-12-29T02:08:03;7.00;99.90
66920;DHT22;53831;52.090;17.026;2022-12-29T02:09:04;7.00;99.90
66920;DHT22;53831;52.090;17.026;2022-12-29T02:10:05;7.00;99.90
66920;DHT22;53831;52.090;17.026;2022-12-29T02:11:07;7.10;99.90
66920;DHT22;53831;52.090;17.026;2022-12-29T02:12:09;7.00;99.90
66920;DHT22;53831;52.090;17.026;2022-12-29T02:13:10;7.10;99.90
66920;DHT22;53831;52.090;17.026;2022-12-29T02:14:12;7.10;99.90
66920;DHT22;53831;52.090;17.026;2022-12-29T02:15:14;7.10;99.90
66920;DHT22;53831;52.090;17.026;2022-12-29T02:16:34;7.10;99.90
66920;DHT22;53831;52.090;17.026;2022-12-29T02:18:05;7.00;99.90
66920;DHT22;53831;52.090;17.026;2022-12-29T02:19:44;7.00;99.90
66920;DHT22;53831;52.090;17.026;2022-12-29T02:28:03;7.00;99.90
66920;DHT22;53831;52.090;17.026;2022-12-29T02:31:47;7.00;99.90
66920;DHT22;53831;52.090;17.026;2022-12-29T02:33:02;7.00;99.90
66920;DHT22;53831;52.090;17.026;2022-12-29T02:35:40;7.10;99.90
66920;DHT22;53831;52.090;17.026;2022-12-29T02:39:50;7.10;99.90
66920;DHT22;53831;52.090;17.026;2022-12-29T02:41:06;7.10;99.90
66920;DHT22;53831;52.090;17.026;2022-12-29T02:42:13;7.10;99.90
66920;DHT22;53831;52.090;17.026;2022-12-29T02:45:04;7.10;99.90
66920;DHT22;53831;52.090;17.026;2022-12-29T02:46:58;7.10;99.90
66920;DHT22;53831;52.090;17.026;2022-12-29T02:47:41;7.10;99.90
66920;DHT22;53831;52.090;17.026;2022-12-29T02:48:52;7.10;99.90
66920;DHT22;53831;52.090;17.026;2022-12-29T02:51:07;7.10;99.90
66920;DHT22;53831;52.090;17.026;2022-12-29T02:52:23;7.10;99.90
66920;DHT22;53831;52.090;17.026;2022-12-29T02:53:29;7.10;99.90
66920;DHT22;53831;52.090;17.026;2022-12-29T02:54:49;7.10;99.90
66920;DHT22;53831;52.090;17.026;2022-12-29T02:55:51;7.10;99.90
66920;DHT22;53831;52.090;17.026;2022-12-29T02:56:52;7.20;99.90
66920;DHT22;53831;52.090;17.026;2022-12-29T02:59:10;7.20;99.90
66920;DHT22;53831;52.090;17.026;2022-12-29T03:00:16;7.20;99.90
66920;DHT22;53831;52.090;17.026;2022-12-29T03:01:40;7.20;99.90
66920;DHT22;53831;52.090;17.026;2022-12-29T03:03:16;7.20;99.90
66920;DHT22;53831;52.090;17.026;2022-12-29T03:04:35;7.30;99.90
66920;DHT22;53831;52.090;17.026;2022-12-29T03:09:48;7.10;99.90
66920;DHT22;53831;52.090;17.026;2022-12-29T03:11:12;7.20;99.90
66920;DHT22;53831;52.090;17.026;2022-12-29T03:15:48;7.10;99.90
66920;DHT22;53831;52.090;17.026;2022-12-29T03:17:18;7.00;99.90
66920;DHT22;53831;52.090;17.026;2022-12-29T03:19:00;7.00;99.90
66920;DHT22;53831;52.090;17.026;2022-12-29T03:19:52;6.90;99.90
66920;DHT22;53831;52.090;17.026;2022-12-29T03:21:02;6.90;99.90
66920;DHT22;53831;52.090;17.026;2022-12-29T03:22:08;6.90;99.90
66920;DHT22;53831;52.090;17.026;2022-12-29T03:23:34;6.90;99.90
66920;DHT22;53831;52.090;17.026;2022-12-29T03:24:43;6.90;99.90
66920;DHT22;53831;52.090;17.026;2022-12-29T03:25:51;6.90;99.90
66920;DHT22;53831;52.090;17.026;2022-12-29T03:26:58;6.90;99.90
66920;DHT22;53831;52.090;17.026;2022-12-29T03:28:05;6.90;99.90
66920;DHT22;53831;52.090;17.026;2022-12-29T03:29:13;6.90;99.90
66920;DHT22;53831;52.090;17.026;2022-12-29T03:30:17;6.90;99.90
66920;DHT22;53831;52.090;17.026;2022-12-29T03:31:19;6.80;99.90
66920;DHT22;53831;52.090;17.026;2022-12-29T03:32:24;6.90;99.90
66920;DHT22;53831;52.090;17.026;2022-12-29T03:33:29;6.80;99.90
66920;DHT22;53831;52.090;17.026;2022-12-29T03:34:34;6.80;99.90
66920;DHT22;53831;52.090;17.026;2022-12-29T03:35:37;6.70;99.90
66920;DHT22;53831;52.090;17.026;2022-12-29T03:36:48;6.80;99.90
66920;DHT22;53831;52.090;17.026;2022-12-29T03:38:13;6.70;99.90
66920;DHT22;53831;52.090;17.026;2022-12-29T03:39:17;6.70;99.90
66920;DHT22;53831;52.090;17.026;2022-12-29T03:40:21;6.80;99.90
66920;DHT22;53831;52.090;17.026;2022-12-29T03:41:27;6.80;99.90
66920;DHT22;53831;52.090;17.026;2022-12-29T03:42:34;6.80;99.90
66920;DHT22;53831;52.090;17.026;2022-12-29T03:43:35;6.80;99.90
66920;DHT22;53831;52.090;17.026;2022-12-29T03:44:38;6.80;99.90
66920;DHT22;53831;52.090;17.026;2022-12-29T03:45:39;6.80;99.90
66920;DHT22;53831;52.090;17.026;2022-12-29T03:46:41;6.80;99.90
66920;DHT22;53831;52.090;17.026;2022-12-29T03:47:42;6.80;99.90
66920;DHT22;53831;52.090;17.026;2022-12-29T03:48:42;6.90;99.90
66920;DHT22;53831;52.090;17.026;2022-12-29T03:49:43;6.90;99.90
66920;DHT22;53831;52.090;17.026;2022-12-29T03:50:46;6.90;99.90
66920;DHT22;53831;52.090;17.026;2022-12-29T03:51:46;6.80;99.90
66920;DHT22;53831;52.090;17.026;2022-12-29T03:52:47;6.80;99.90
66920;DHT22;53831;52.090;17.026;2022-12-29T03:53:48;6.80;99.90
66920;DHT22;53831;52.090;17.026;2022-12-29T03:54:48;6.80;99.90
66920;DHT22;53831;52.090;17.026;2022-12-29T03:55:49;6.90;99.90
66920;DHT22;53831;52.090;17.026;2022-12-29T03:56:50;6.80;99.90
66920;DHT22;53831;52.090;17.026;2022-12-29T03:57:57;6.80;99.90
66920;DHT22;53831;52.090;17.026;2022-12-29T03:59:12;6.90;99.90
66920;DHT22;53831;52.090;17.026;2022-12-29T04:00:14;6.80;99.90
66920;DHT22;53831;52.090;17.026;2022-12-29T04:01:16;6.80;99.90
66920;DHT22;53831;52.090;17.026;2022-12-29T04:02:17;6.80;99.90
66920;DHT22;53831;52.090;17.026;2022-12-29T04:03:18;6.80;99.90
66920;DHT22;53831;52.090;17.026;2022-12-29T04:04:19;6.80;99.90
66920;DHT22;53831;52.090;17.026;2022-12-29T04:05:21;6.80;99.90
66920;DHT22;53831;52.090;17.026;2022-12-29T04:06:24;6.80;99.90
66920;DHT22;53831;52.090;17.026;2022-12-29T04:07:32;6.90;99.90
66920;DHT22;53831;52.090;17.026;2022-12-29T04:08:33;6.80;99.90
66920;DHT22;53831;52.090;17.026;2022-12-29T04:09:33;6.80;99.90
66920;DHT22;53831;52.090;17.026;2022-12-29T04:10:35;6.90;99.90
66920;DHT22;53831;52.090;17.026;2022-12-29T04:11:39;6.80;99.90
66920;DHT22;53831;52.090;17.026;2022-12-29T04:12:40;6.90;99.90
66920;DHT22;53831;52.090;17.026;2022-12-29T04:13:42;6.90;99.90
66920;DHT22;53831;52.090;17.026;2022-12-29T04:14:47;6.90;99.90
66920;DHT22;53831;52.090;17.026;2022-12-29T04:15:47;6.90;99.90
66920;DHT22;53831;52.090;17.026;2022-12-29T04:16:48;6.90;99.90
66920;DHT22;53831;52.090;17.026;2022-12-29T04:17:49;7.00;99.90
66920;DHT22;53831;52.090;17.026;2022-12-29T04:18:49;6.90;99.90
66920;DHT22;53831;52.090;17.026;2022-12-29T04:19:51;7.00;99.90
66920;DHT22;53831;52.090;17.026;2022-12-29T04:20:52;6.90;99.90
66920;DHT22;53831;52.090;17.026;2022-12-29T04:22:03;6.90;99.90
66920;DHT22;53831;52.090;17.026;2022-12-29T04:23:05;7.00;99.90
66920;DHT22;53831;52.090;17.026;2022-12-29T04:24:08;7.00;99.90
66920;DHT22;53831;52.090;17.026;2022-12-29T04:25:13;7.00;99.90
66920;DHT22;53831;52.090;17.026;2022-12-29T04:26:14;7.00;99.90
66920;DHT22;53831;52.090;17.026;2022-12-29T04:27:24;7.00;99.90
66920;DHT22;53831;52.090;17.026;2022-12-29T04:28:54;7.00;99.90
66920;DHT22;53831;52.090;17.026;2022-12-29T04:30:07;7.00;99.90
66920;DHT22;53831;52.090;17.026;2022-12-29T04:31:22;7.00;99.90
66920;DHT22;53831;52.090;17.026;2022-12-29T04:32:24;7.00;99.90
66920;DHT22;53831;52.090;17.026;2022-12-29T04:33:27;7.00;99.90
66920;DHT22;53831;52.090;17.026;2022-12-29T04:34:28;7.10;99.90
66920;DHT22;53831;52.090;17.026;2022-12-29T04:35:28;7.10;99.90
66920;DHT22;53831;52.090;17.026;2022-12-29T04:36:29;7.10;99.90
66920;DHT22;53831;52.090;17.026;2022-12-29T04:37:30;7.10;99.90
66920;DHT22;53831;52.090;17.026;2022-12-29T04:38:31;7.10;99.90
66920;DHT22;53831;52.090;17.026;2022-12-29T04:39:34;7.20;99.90
66920;DHT22;53831;52.090;17.026;2022-12-29T04:40:35;7.20;99.90
66920;DHT22;53831;52.090;17.026;2022-12-29T04:41:35;7.20;99.90
66920;DHT22;53831;52.090;17.026;2022-12-29T04:42:37;7.20;99.90
66920;DHT22;53831;52.090;17.026;2022-12-29T04:43:38;7.30;99.90
66920;DHT22;53831;52.090;17.026;2022-12-29T04:44:49;7.30;99.90
66920;DHT22;53831;52.090;17.026;2022-12-29T04:46:09;7.30;99.90
66920;DHT22;53831;52.090;17.026;2022-12-29T04:47:30;7.40;99.90
66920;DHT22;53831;52.090;17.026;2022-12-29T04:48:57;7.40;99.90
66920;DHT22;53831;52.090;17.026;2022-12-29T04:50:24;7.40;99.90
66920;DHT22;53831;52.090;17.026;2022-12-29T04:51:28;7.50;99.90
66920;DHT22;53831;52.090;17.026;2022-12-29T04:52:29;7.40;99.90
66920;DHT22;53831;52.090;17.026;2022-12-29T04:53:30;7.50;99.90
66920;DHT22;53831;52.090;17.026;2022-12-29T04:54:33;7.50;99.90
66920;DHT22;53831;52.090;17.026;2022-12-29T04:55:42;7.50;99.90
66920;DHT22;53831;52.090;17.026;2022-12-29T04:56:43;7.50;99.90
66920;DHT22;53831;52.090;17.026;2022-12-29T04:57:45;7.50;99.90
66920;DHT22;53831;52.090;17.026;2022-12-29T04:58:49;7.50;99.90
66920;DHT22;53831;52.090;17.026;2022-12-29T04:59:49;7.50;99.90
66920;DHT22;53831;52.090;17.026;2022-12-29T05:00:51;7.50;99.90
66920;DHT22;53831;52.090;17.026;2022-12-29T05:01:54;7.50;99.90
66920;DHT22;53831;52.090;17.026;2022-12-29T05:02:54;7.50;99.90
66920;DHT22;53831;52.090;17.026;2022-12-29T05:03:55;7.50;99.90
66920;DHT22;53831;52.090;17.026;2022-12-29T05:04:56;7.40;99.90
66920;DHT22;53831;52.090;17.026;2022-12-29T05:05:57;7.50;99.90
66920;DHT22;53831;52.090;17.026;2022-12-29T05:06:58;7.40;99.90
66920;DHT22;53831;52.090;17.026;2022-12-29T05:07:59;7.50;99.90
66920;DHT22;53831;52.090;17.026;2022-12-29T05:09:01;7.50;99.90
66920;DHT22;53831;52.090;17.026;2022-12-29T05:10:02;7.40;99.90
66920;DHT22;53831;52.090;17.026;2022-12-29T05:11:04;7.40;99.90
66920;DHT22;53831;52.090;17.026;2022-12-29T05:12:05;7.50;99.90
66920;DHT22;53831;52.090;17.026;2022-12-29T05:13:07;7.40;99.90
66920;DHT22;53831;52.090;17.026;2022-12-29T05:14:08;7.40;99.90
66920;DHT22;53831;52.090;17.026;2022-12-29T05:15:10;7.40;99.90
66920;DHT22;53831;52.090;17.026;2022-12-29T05:16:11;7.40;99.90
66920;DHT22;53831;52.090;17.026;2022-12-29T05:17:12;7.40;99.90
66920;DHT22;53831;52.090;17.026;2022-12-29T05:18:13;7.40;99.90
66920;DHT22;53831;52.090;17.026;2022-12-29T05:19:16;7.40;99.90
66920;DHT22;53831;52.090;17.026;2022-12-29T05:20:17;7.40;99.90
66920;DHT22;53831;52.090;17.026;2022-12-29T05:21:18;7.40;99.90
66920;DHT22;53831;52.090;17.026;2022-12-29T05:22:19;7.40;99.90
66920;DHT22;53831;52.090;17.026;2022-12-29T05:23:20;7.40;99.90
66920;DHT22;53831;52.090;17.026;2022-12-29T05:24:26;7.40;99.90
66920;DHT22;53831;52.090;17.026;2022-12-29T05:25:30;7.50;99.90
66920;DHT22;53831;52.090;17.026;2022-12-29T05:26:45;7.50;99.90
66920;DHT22;53831;52.090;17.026;2022-12-29T05:28:02;7.50;99.90
66920;DHT22;53831;52.090;17.026;2022-12-29T05:29:20;7.50;99.90
66920;DHT22;53831;52.090;17.026;2022-12-29T05:30:20;7.50;99.90
66920;DHT22;53831;52.090;17.026;2022-12-29T05:31:21;7.50;99.90
66920;DHT22;53831;52.090;17.026;2022-12-29T05:32:22;7.40;99.90
66920;DHT22;53831;52.090;17.026;2022-12-29T05:33:23;7.50;99.90
66920;DHT22;53831;52.090;17.026;2022-12-29T05:34:25;7.50;99.90
66920;DHT22;53831;52.090;17.026;2022-12-29T05:35:25;7.50;99.90
66920;DHT22;53831;52.090;17.026;2022-12-29T05:36:26;7.50;99.90
66920;DHT22;53831;52.090;17.026;2022-12-29T05:37:31;7.40;99.90
66920;DHT22;53831;52.090;17.026;2022-12-29T05:38:32;7.50;99.90
66920;DHT22;53831;52.090;17.026;2022-12-29T05:39:33;7.50;99.90
66920;DHT22;53831;52.090;17.026;2022-12-29T05:40:36;7.50;99.90
66920;DHT22;53831;52.090;17.026;2022-12-29T05:41:41;7.40;99.90
66920;DHT22;53831;52.090;17.026;2022-12-29T05:43:20;7.40;99.90
66920;DHT22;53831;52.090;17.026;2022-12-29T05:44:47;7.40;99.90
66920;DHT22;53831;52.090;17.026;2022-12-29T05:46:19;7.40;99.90
66920;DHT22;53831;52.090;17.026;2022-12-29T05:47:52;7.40;99.90
66920;DHT22;53831;52.090;17.026;2022-12-29T05:49:12;7.40;99.90
66920;DHT22;53831;52.090;17.026;2022-12-29T05:50:27;7.40;99.90
66920;DHT22;53831;52.090;17.026;2022-12-29T05:51:42;7.40;99.90
66920;DHT22;53831;52.090;17.026;2022-12-29T05:52:43;7.40;99.90
66920;DHT22;53831;52.090;17.026;2022-12-29T05:53:43;7.40;99.90
66920;DHT22;53831;52.090;17.026;2022-12-29T05:54:44;7.40;99.90
66920;DHT22;53831;52.090;17.026;2022-12-29T05:55:48;7.40;99.90
66920;DHT22;53831;52.090;17.026;2022-12-29T05:56:49;7.50;99.90
66920;DHT22;53831;52.090;17.026;2022-12-29T05:57:50;7.50;99.90
66920;DHT22;53831;52.090;17.026;2022-12-29T05:58:51;7.50;99.90
66920;DHT22;53831;52.090;17.026;2022-12-29T05:59:52;7.50;99.90
66920;DHT22;53831;52.090;17.026;2022-12-29T06:00:52;7.50;99.90
66920;DHT22;53831;52.090;17.026;2022-12-29T06:01:53;7.50;99.90
66920;DHT22;53831;52.090;17.026;2022-12-29T06:02:54;7.50;99.90
66920;DHT22;53831;52.090;17.026;2022-12-29T06:03:55;7.50;99.90
66920;DHT22;53831;52.090;17.026;2022-12-29T06:04:55;7.50;99.90
66920;DHT22;53831;52.090;17.026;2022-12-29T06:05:57;7.50;99.90
66920;DHT22;53831;52.090;17.026;2022-12-29T06:06:57;7.50;99.90
66920;DHT22;53831;52.090;17.026;2022-12-29T06:08:10;7.50;99.90
66920;DHT22;53831;52.090;17.026;2022-12-29T06:09:11;7.50;99.90
66920;DHT22;53831;52.090;17.026;2022-12-29T06:10:12;7.60;99.90
66920;DHT22;53831;52.090;17.026;2022-12-29T06:11:18;7.60;99.90
66920;DHT22;53831;52.090;17.026;2022-12-29T06:12:24;7.60;99.90
66920;DHT22;53831;52.090;17.026;2022-12-29T06:13:27;7.60;99.90
66920;DHT22;53831;52.090;17.026;2022-12-29T06:14:28;7.60;99.90
66920;DHT22;53831;52.090;17.026;2022-12-29T06:15:29;7.60;99.90
66920;DHT22;53831;52.090;17.026;2022-12-29T06:16:30;7.60;99.90
66920;DHT22;53831;52.090;17.026;2022-12-29T06:17:33;7.60;99.90
66920;DHT22;53831;52.090;17.026;2022-12-29T06:18:34;7.60;99.90
66920;DHT22;53831;52.090;17.026;2022-12-29T06:19:35;7.60;99.90
66920;DHT22;53831;52.090;17.026;2022-12-29T06:20:36;7.60;99.90
66920;DHT22;53831;52.090;17.026;2022-12-29T06:21:39;7.60;99.90
66920;DHT22;53831;52.090;17.026;2022-12-29T06:22:40;7.60;99.90
66920;DHT22;53831;52.090;17.026;2022-12-29T06:23:41;7.60;99.90
66920;DHT22;53831;52.090;17.026;2022-12-29T06:24:42;7.60;99.90
66920;DHT22;53831;52.090;17.026;2022-12-29T06:25:42;7.60;99.90
66920;DHT22;53831;52.090;17.026;2022-12-29T06:26:43;7.60;99.90
66920;DHT22;53831;52.090;17.026;2022-12-29T06:27:44;7.60;99.90
66920;DHT22;53831;52.090;17.026;2022-12-29T06:28:44;7.60;99.90
66920;DHT22;53831;52.090;17.026;2022-12-29T06:29:45;7.60;99.90
66920;DHT22;53831;52.090;17.026;2022-12-29T06:30:47;7.70;99.90
66920;DHT22;53831;52.090;17.026;2022-12-29T06:31:49;7.70;99.90
66920;DHT22;53831;52.090;17.026;2022-12-29T06:32:51;7.70;99.90
66920;DHT22;53831;52.090;17.026;2022-12-29T06:33:53;7.70;99.90
66920;DHT22;53831;52.090;17.026;2022-12-29T06:34:54;7.70;99.90
66920;DHT22;53831;52.090;17.026;2022-12-29T06:35:54;7.70;99.90
66920;DHT22;53831;52.090;17.026;2022-12-29T06:36:55;7.70;99.90
66920;DHT22;53831;52.090;17.026;2022-12-29T06:37:55;7.70;99.90
66920;DHT22;53831;52.090;17.026;2022-12-29T06:38:56;7.80;99.90
66920;DHT22;53831;52.090;17.026;2022-12-29T06:39:58;7.80;99.90
66920;DHT22;53831;52.090;17.026;2022-12-29T06:41:04;7.80;99.90
66920;DHT22;53831;52.090;17.026;2022-12-29T06:42:24;7.80;99.90
66920;DHT22;53831;52.090;17.026;2022-12-29T06:43:43;7.80;99.90
66920;DHT22;53831;52.090;17.026;2022-12-29T06:44:55;7.80;99.90
66920;DHT22;53831;52.090;17.026;2022-12-29T06:45:58;7.80;99.90
66920;DHT22;53831;52.090;17.026;2022-12-29T06:46:59;7.80;99.90
66920;DHT22;53831;52.090;17.026;2022-12-29T06:48:00;7.80;99.90
66920;DHT22;53831;52.090;17.026;2022-12-29T06:49:00;7.80;99.90
66920;DHT22;53831;52.090;17.026;2022-12-29T06:50:02;7.80;99.90
66920;DHT22;53831;52.090;17.026;2022-12-29T06:51:02;7.80;99.90
66920;DHT22;53831;52.090;17.026;2022-12-29T06:52:03;7.90;99.90
66920;DHT22;53831;52.090;17.026;2022-12-29T06:53:04;7.80;99.90
66920;DHT22;53831;52.090;17.026;2022-12-29T06:54:05;7.80;99.90
66920;DHT22;53831;52.090;17.026;2022-12-29T06:55:06;7.80;99.90
66920;DHT22;53831;52.090;17.026;2022-12-29T06:56:07;7.80;99.90
66920;DHT22;53831;52.090;17.026;2022-12-29T06:57:08;7.90;99.90
66920;DHT22;53831;52.090;17.026;2022-12-29T06:58:09;7.90;99.90
66920;DHT22;53831;52.090;17.026;2022-12-29T06:59:09;7.80;99.90
66920;DHT22;53831;52.090;17.026;2022-12-29T07:00:10;7.90;99.90
66920;DHT22;53831;52.090;17.026;2022-12-29T07:01:11;7.80;99.90
66920;DHT22;53831;52.090;17.026;2022-12-29T07:02:12;7.90;99.90
66920;DHT22;53831;52.090;17.026;2022-12-29T07:03:14;7.90;99.90
66920;DHT22;53831;52.090;17.026;2022-12-29T07:04:15;7.90;99.90
66920;DHT22;53831;52.090;17.026;2022-12-29T07:05:15;7.90;99.90
66920;DHT22;53831;52.090;17.026;2022-12-29T07:06:16;7.80;99.90
66920;DHT22;53831;52.090;17.026;2022-12-29T07:07:16;7.90;99.90
66920;DHT22;53831;52.090;17.026;2022-12-29T07:08:17;7.90;99.90
66920;DHT22;53831;52.090;17.026;2022-12-29T07:09:18;7.90;99.90
66920;DHT22;53831;52.090;17.026;2022-12-29T07:10:19;7.90;99.90
66920;DHT22;53831;52.090;17.026;2022-12-29T07:11:21;7.90;99.90
66920;DHT22;53831;52.090;17.026;2022-12-29T07:12:21;7.90;99.90
66920;DHT22;53831;52.090;17.026;2022-12-29T07:13:22;7.90;99.90
66920;DHT22;53831;52.090;17.026;2022-12-29T07:14:23;8.00;99.90
66920;DHT22;53831;52.090;17.026;2022-12-29T07:15:23;8.00;99.90
66920;DHT22;53831;52.090;17.026;2022-12-29T07:16:24;7.90;99.90
66920;DHT22;53831;52.090;17.026;2022-12-29T07:17:25;7.90;99.90
66920;DHT22;53831;52.090;17.026;2022-12-29T07:18:25;8.00;99.90
66920;DHT22;53831;52.090;17.026;2022-12-29T07:19:26;8.00;99.90
66920;DHT22;53831;52.090;17.026;2022-12-29T07:20:26;8.00;99.90
66920;DHT22;53831;52.090;17.026;2022-12-29T07:21:27;8.00;99.90
66920;DHT22;53831;52.090;17.026;2022-12-29T07:22:28;8.00;99.90